Time;durP1;ratioP1;P1;durP2;ratioP2;P2;SDS_P1;SDS_P2;PMS_P1;PMS_P2;Temp;Humidity;BMP_temperature;BMP_pressure;BME280_temperature;BME280_humidity;BME280_pressure;Samples;Min_cycle;Max_cycle;Signal;HPM_P1;HPM_P2
2022/06/18 00:00:51;;;;;;;5.45;3.45;;;20.80;99.90;;;;;;4996510;28;20046;-87
2022/06/18 00:03:17;;;;;;;4.53;3.97;;;20.80;99.90;;;;;;4964113;28;20056;-86
2022/06/18 00:05:43;;;;;;;10.80;3.67;;;20.80;99.90;;;;;;5012840;28;20050;-87
2022/06/18 00:08:16;;;;;;;6.07;3.63;;;20.80;99.90;;;;;;4980898;28;20390;-87
2022/06/18 00:10:42;;;;;;;7.60;3.67;;;20.80;99.90;;;;;;5013888;28;20414;-87
2022/06/18 00:15:58;;;;;;;8.82;3.95;;;20.80;99.90;;;;;;4997245;28;20123;-89
2022/06/18 00:18:24;;;;;;;5.28;3.72;;;20.70;99.90;;;;;;4979896;28;20050;-88
2022/06/18 00:20:49;;;;;;;4.72;3.55;;;20.70;99.90;;;;;;5012570;28;20038;-86
2022/06/18 00:23:15;;;;;;;8.77;3.67;;;20.70;99.90;;;;;;4964161;28;20549;-86
2022/06/18 00:25:45;;;;;;;6.40;3.70;;;20.70;99.90;;;;;;4980270;28;20399;-86
2022/06/18 00:28:13;;;;;;;7.10;3.55;;;20.70;99.90;;;;;;5013646;28;20119;-86
2022/06/18 00:30:39;;;;;;;4.13;3.50;;;20.70;99.90;;;;;;5012481;28;20058;-86
2022/06/18 00:33:05;;;;;;;6.53;3.55;;;20.60;99.90;;;;;;5012902;28;20064;-87
2022/06/18 00:35:32;;;;;;;5.38;3.75;;;20.60;99.90;;;;;;4980227;28;20085;-87
2022/06/18 00:37:59;;;;;;;5.28;4.03;;;20.60;99.90;;;;;;5013479;28;20050;-87
2022/06/18 00:40:38;;;;;;;4.88;3.88;;;20.60;99.90;;;;;;5012892;28;20375;-87
2022/06/18 00:43:07;;;;;;;5.18;4.20;;;20.60;99.90;;;;;;4964301;28;20046;-87
2022/06/18 00:45:32;;;;;;;7.50;4.18;;;20.50;99.90;;;;;;5012823;28;20120;-86
2022/06/18 00:48:07;;;;;;;7.05;4.22;;;20.50;99.90;;;;;;5012648;28;20462;-87
2022/06/18 00:50:43;;;;;;;4.40;4.00;;;20.50;99.90;;;;;;5012840;28;20390;-87
2022/06/18 00:53:16;;;;;;;6.43;4.20;;;20.50;99.90;;;;;;5013873;28;20421;-87
2022/06/18 00:55:49;;;;;;;6.00;4.10;;;20.50;99.90;;;;;;5014846;28;20165;-88
2022/06/18 00:58:29;;;;;;;6.30;3.85;;;20.40;99.90;;;;;;4984378;28;20054;-86
2022/06/18 01:00:55;;;;;;;6.25;4.65;;;20.40;99.90;;;;;;4968612;28;20490;-88
2022/06/18 01:03:26;;;;;;;6.90;4.32;;;20.50;99.90;;;;;;5016065;28;20104;-86
2022/06/18 01:05:53;;;;;;;6.78;4.00;;;20.40;99.90;;;;;;5015734;28;20116;-87
2022/06/18 01:08:20;;;;;;;9.63;4.75;;;20.40;99.90;;;;;;5015625;28;20053;-85
2022/06/18 01:10:51;;;;;;;6.05;4.60;;;20.40;99.90;;;;;;5015709;28;20502;-87
2022/06/18 01:13:20;;;;;;;5.18;4.15;;;20.40;99.90;;;;;;4967740;28;20129;-85
2022/06/18 01:15:46;;;;;;;6.97;4.80;;;20.40;99.90;;;;;;5015600;28;20049;-85
2022/06/18 01:18:12;;;;;;;7.30;4.93;;;20.30;99.90;;;;;;4983658;28;20462;-86
2022/06/18 01:20:52;;;;;;;6.05;5.00;;;20.30;99.90;;;;;;5015999;28;20132;-87
2022/06/18 01:23:35;;;;;;;6.13;4.80;;;20.30;99.90;;;;;;4966896;28;20545;-87
2022/06/18 01:26:01;;;;;;;6.15;4.85;;;20.20;99.90;;;;;;4985175;28;20045;-86
2022/06/18 01:28:27;;;;;;;6.97;4.82;;;20.20;99.90;;;;;;5015263;28;20165;-87
2022/06/18 01:30:52;;;;;;;8.23;5.10;;;20.20;99.90;;;;;;5015072;28;20085;-85
2022/06/18 01:33:18;;;;;;;6.00;4.65;;;20.10;99.90;;;;;;4982598;28;20478;-86
2022/06/18 01:35:47;;;;;;;7.53;5.80;;;20.10;99.90;;;;;;5015247;28;20096;-86
2022/06/18 01:38:13;;;;;;;5.72;5.18;;;20.10;99.90;;;;;;5015897;28;20128;-87
2022/06/18 01:40:50;;;;;;;8.80;5.65;;;20.10;99.90;;;;;;5015421;28;20153;-87
2022/06/18 01:43:18;;;;;;;10.10;5.30;;;20.00;99.90;;;;;;4998966;28;20068;-86
2022/06/18 01:45:43;;;;;;;6.90;5.15;;;20.00;99.90;;;;;;5014928;28;20128;-86
2022/06/18 01:48:18;;;;;;;6.35;5.75;;;20.00;99.90;;;;;;4982437;28;20081;-86
2022/06/18 01:50:52;;;;;;;6.47;5.80;;;19.90;99.90;;;;;;4984152;28;20046;-87
2022/06/18 01:53:22;;;;;;;7.20;5.40;;;19.90;99.90;;;;;;5016469;28;20124;-86
2022/06/18 01:55:53;;;;;;;8.95;5.60;;;19.80;99.90;;;;;;5014744;28;20096;-87
2022/06/18 01:58:32;;;;;;;7.10;5.75;;;19.80;99.90;;;;;;5016177;28;20058;-87
2022/06/18 02:00:58;;;;;;;6.43;5.82;;;19.70;99.90;;;;;;4983886;28;20431;-88
2022/06/18 02:03:23;;;;;;;11.00;6.18;;;19.70;99.90;;;;;;5014617;28;20081;-87
2022/06/18 02:05:49;;;;;;;9.25;5.82;;;19.70;99.90;;;;;;4998107;28;20046;-86
2022/06/18 02:08:16;;;;;;;7.57;6.25;;;19.70;99.90;;;;;;4981531;28;20087;-87
2022/06/18 02:10:54;;;;;;;6.30;5.70;;;19.70;99.90;;;;;;4982163;28;20520;-88
2022/06/18 02:13:21;;;;;;;8.77;6.00;;;19.60;99.90;;;;;;4983917;28;20054;-87
2022/06/18 02:15:46;;;;;;;7.97;6.13;;;19.60;99.90;;;;;;4981750;28;20053;-87
2022/06/18 02:18:13;;;;;;;6.88;6.20;;;19.60;99.90;;;;;;4981771;28;20057;-86
2022/06/18 02:20:59;;;;;;;7.18;6.45;;;19.50;99.90;;;;;;5014256;28;20084;-86
2022/06/18 02:23:25;;;;;;;12.07;7.10;;;19.50;99.90;;;;;;4997890;28;20065;-86
2022/06/18 02:25:51;;;;;;;10.57;6.93;;;19.50;99.90;;;;;;4997979;28;20050;-86
2022/06/18 02:28:29;;;;;;;8.20;6.78;;;19.50;99.90;;;;;;4965706;28;20045;-87
2022/06/18 02:30:58;;;;;;;9.80;6.88;;;19.50;99.90;;;;;;5013821;28;20104;-87
2022/06/18 02:33:37;;;;;;;8.98;6.97;;;19.50;99.90;;;;;;4965765;28;20480;-86
2022/06/18 02:36:23;;;;;;;8.45;7.65;;;19.40;99.90;;;;;;5013656;28;20053;-86
2022/06/18 02:38:51;;;;;;;9.52;7.00;;;19.40;99.90;;;;;;5014284;28;20049;-86
2022/06/18 02:41:16;;;;;;;9.13;7.00;;;19.30;99.90;;;;;;4981347;28;20042;-87
2022/06/18 02:43:43;;;;;;;10.05;7.20;;;19.20;99.90;;;;;;4981318;28;20085;-86
2022/06/18 02:46:08;;;;;;;12.60;7.43;;;19.20;99.90;;;;;;5013818;28;20049;-86
2022/06/18 02:48:35;;;;;;;12.30;7.57;;;19.20;99.90;;;;;;4981169;28;20056;-87
2022/06/18 02:51:01;;;;;;;12.30;7.80;;;19.20;99.90;;;;;;4982063;28;20045;-86
2022/06/18 02:53:28;;;;;;;11.23;8.23;;;19.10;99.90;;;;;;5014665;28;20502;-86
2022/06/18 02:56:00;;;;;;;9.00;7.80;;;19.10;99.90;;;;;;5013661;28;20046;-85
2022/06/18 02:58:37;;;;;;;10.07;8.20;;;19.10;99.90;;;;;;4965080;28;20506;-86
2022/06/18 03:01:09;;;;;;;11.95;8.52;;;19.00;99.90;;;;;;5015163;28;20046;-87
2022/06/18 03:03:38;;;;;;;10.20;8.20;;;19.00;99.90;;;;;;5014967;28;20064;-87
2022/06/18 03:06:04;;;;;;;9.95;8.57;;;19.00;99.90;;;;;;4965246;28;20073;-87
2022/06/18 03:08:30;;;;;;;14.02;8.80;;;18.90;99.90;;;;;;5013437;28;20475;-86
2022/06/18 03:13:41;;;;;;;9.88;8.63;;;18.90;99.90;;;;;;5016667;28;20119;-85
2022/06/18 03:16:10;;;;;;;10.73;8.73;;;18.90;99.90;;;;;;4965056;28;20084;-87
2022/06/18 03:18:37;;;;;;;11.60;9.55;;;18.90;99.90;;;;;;4980705;28;20045;-86
2022/06/18 03:21:15;;;;;;;12.52;9.18;;;18.80;99.90;;;;;;4980292;28;20393;-86
2022/06/18 03:23:41;;;;;;;9.90;8.93;;;18.80;99.90;;;;;;4965953;28;20050;-86
2022/06/18 03:26:07;;;;;;;9.65;8.70;;;18.80;99.90;;;;;;4964794;28;20096;-87
2022/06/18 03:28:33;;;;;;;12.13;8.70;;;18.80;99.90;;;;;;5013202;28;20050;-86
2022/06/18 03:30:58;;;;;;;12.25;9.50;;;18.80;99.90;;;;;;5012776;28;20053;-86
2022/06/18 03:33:24;;;;;;;10.65;9.18;;;18.80;99.90;;;;;;4997147;28;20050;-86
2022/06/18 03:35:50;;;;;;;11.50;9.10;;;18.80;99.90;;;;;;5013132;28;20049;-87
2022/06/18 03:38:16;;;;;;;12.05;9.20;;;18.80;99.90;;;;;;5013552;28;20046;-87
2022/06/18 03:40:43;;;;;;;15.23;10.25;;;18.80;99.90;;;;;;4964011;28;20042;-87
2022/06/18 03:43:09;;;;;;;14.73;9.60;;;18.80;99.90;;;;;;4965388;28;20057;-87
2022/06/18 03:45:40;;;;;;;10.88;9.75;;;18.80;99.90;;;;;;4980254;28;20564;-86
2022/06/18 03:48:06;;;;;;;11.95;9.63;;;18.90;99.90;;;;;;4981580;28;20382;-88
2022/06/18 03:50:31;;;;;;;15.82;10.13;;;18.90;99.90;;;;;;4964352;28;20041;-86
2022/06/18 03:52:57;;;;;;;12.68;10.52;;;18.90;99.90;;;;;;4996827;28;20045;-86
2022/06/18 03:55:24;;;;;;;15.13;10.43;;;18.80;99.90;;;;;;4979974;28;20050;-85
2022/06/18 03:57:50;;;;;;;12.88;10.43;;;18.90;99.90;;;;;;4980771;28;20451;-87
2022/06/18 04:00:19;;;;;;;14.07;10.70;;;19.00;99.90;;;;;;4996238;28;20046;-87
2022/06/18 04:02:45;;;;;;;15.02;11.48;;;19.00;99.90;;;;;;4964594;28;20413;-87
2022/06/18 04:05:11;;;;;;;15.50;10.43;;;18.90;99.90;;;;;;4980326;28;20050;-86
2022/06/18 04:07:36;;;;;;;15.32;12.00;;;19.00;99.90;;;;;;4996738;28;20382;-87
2022/06/18 04:10:03;;;;;;;19.40;11.93;;;19.00;99.90;;;;;;4964732;28;20057;-86
2022/06/18 04:12:29;;;;;;;18.35;12.18;;;19.00;99.90;;;;;;4997362;28;20049;-86
2022/06/18 04:14:54;;;;;;;13.48;11.68;;;19.10;99.90;;;;;;4980743;28;20111;-87
2022/06/18 04:17:20;;;;;;;17.30;12.05;;;19.10;99.90;;;;;;4964229;28;20528;-87
2022/06/18 04:19:46;;;;;;;18.65;12.82;;;19.10;99.90;;;;;;4980036;28;20100;-86
2022/06/18 04:22:12;;;;;;;19.35;12.98;;;19.10;99.90;;;;;;4979858;28;20089;-86
2022/06/18 04:24:37;;;;;;;15.93;12.48;;;19.20;99.90;;;;;;4980246;28;20057;-87
2022/06/18 04:27:04;;;;;;;18.77;13.98;;;19.20;99.90;;;;;;4996290;28;20049;-86
2022/06/18 04:29:31;;;;;;;16.77;12.98;;;19.20;99.90;;;;;;4980405;28;20057;-86
2022/06/18 04:31:56;;;;;;;19.20;13.50;;;19.20;99.90;;;;;;4983877;28;20409;-87
2022/06/18 04:34:22;;;;;;;20.65;13.93;;;19.20;99.90;;;;;;4967767;28;20049;-87
2022/06/18 04:36:48;;;;;;;21.73;14.35;;;19.20;99.90;;;;;;4968365;28;20054;-86
2022/06/18 04:39:14;;;;;;;20.83;13.75;;;19.30;99.90;;;;;;4984210;28;20433;-86
2022/06/18 04:41:39;;;;;;;20.20;13.38;;;19.50;99.90;;;;;;4983575;28;20128;-87
2022/06/18 04:44:05;;;;;;;16.20;13.15;;;19.90;99.90;;;;;;4983272;28;20042;-86
2022/06/18 04:46:31;;;;;;;23.17;13.02;;;20.10;99.90;;;;;;4983691;28;20129;-85
2022/06/18 04:48:57;;;;;;;17.65;13.05;;;20.40;99.90;;;;;;4984390;28;20049;-87
2022/06/18 04:51:22;;;;;;;19.10;13.18;;;20.60;99.90;;;;;;4999724;28;20573;-86
2022/06/18 04:53:48;;;;;;;16.80;13.20;;;20.80;99.90;;;;;;4967425;28;20053;-87
2022/06/18 04:56:14;;;;;;;23.27;14.20;;;21.00;99.90;;;;;;4999504;28;20042;-87
2022/06/18 04:58:39;;;;;;;19.38;13.75;;;21.00;99.90;;;;;;4983411;28;20046;-87
2022/06/18 05:01:10;;;;;;;21.48;13.13;;;21.20;99.90;;;;;;4967989;28;20493;-86
2022/06/18 05:03:36;;;;;;;18.92;13.32;;;21.70;99.90;;;;;;4967692;28;20080;-86
2022/06/18 05:06:02;;;;;;;18.80;12.65;;;21.50;99.90;;;;;;4983701;28;20454;-86
2022/06/18 05:08:27;;;;;;;21.42;13.73;;;21.90;99.90;;;;;;4984010;28;20481;-86
2022/06/18 05:10:53;;;;;;;19.83;13.43;;;21.90;99.90;;;;;;4999855;28;20061;-88
2022/06/18 05:13:19;;;;;;;24.33;13.50;;;21.80;99.90;;;;;;4982959;28;20049;-88
2022/06/18 05:15:44;;;;;;;18.63;13.93;;;21.80;99.90;;;;;;4967290;28;20034;-87
2022/06/18 05:18:12;;;;;;;17.13;13.18;;;21.90;99.90;;;;;;4983719;28;20490;-87
2022/06/18 05:20:38;;;;;;;17.15;13.13;;;22.10;99.90;;;;;;4983896;28;20085;-87
2022/06/18 05:23:03;;;;;;;22.55;13.73;;;22.50;99.90;;;;;;4984219;28;20115;-86
2022/06/18 05:25:29;;;;;;;18.75;13.65;;;22.20;99.90;;;;;;4985034;28;20414;-87
2022/06/18 05:27:55;;;;;;;21.40;13.23;;;22.60;99.90;;;;;;5013011;28;20046;-86
2022/06/18 05:30:25;;;;;;;24.65;13.70;;;22.80;99.90;;;;;;5013163;28;20124;-87
2022/06/18 05:32:51;;;;;;;22.45;13.40;;;22.70;99.90;;;;;;4973930;28;20157;-86
2022/06/18 05:35:17;;;;;;;19.92;12.93;;;22.70;99.90;;;;;;5009149;28;20042;-86
2022/06/18 05:37:43;;;;;;;18.25;13.20;;;22.80;99.90;;;;;;4992282;28;20132;-86
2022/06/18 05:40:10;;;;;;;19.40;13.00;;;23.00;99.90;;;;;;4983702;28;20470;-86
2022/06/18 05:42:35;;;;;;;20.10;13.05;;;23.20;99.90;;;;;;4982844;28;20433;-85
2022/06/18 05:45:01;;;;;;;16.73;12.88;;;23.40;99.90;;;;;;4982926;28;20056;-86
2022/06/18 05:47:30;;;;;;;20.42;12.38;;;23.60;99.90;;;;;;4983101;28;20103;-86
2022/06/18 05:49:56;;;;;;;21.95;13.32;;;23.30;99.90;;;;;;4990159;28;20045;-85
2022/06/18 05:52:24;;;;;;;16.40;12.77;;;23.60;99.90;;;;;;4993874;28;20511;-86
2022/06/18 05:54:52;;;;;;;19.50;12.48;;;24.10;99.90;;;;;;4995156;28;20050;-85
2022/06/18 05:57:18;;;;;;;18.40;12.63;;;23.70;99.90;;;;;;4992218;28;20049;-86
2022/06/18 05:59:44;;;;;;;19.95;12.63;;;24.20;99.90;;;;;;4984024;28;20046;-86
2022/06/18 06:02:10;;;;;;;16.80;12.85;;;23.90;99.90;;;;;;4966414;28;20049;-87
2022/06/18 06:04:39;;;;;;;18.15;12.95;;;24.10;99.90;;;;;;4966850;28;20150;-85
2022/06/18 06:07:14;;;;;;;19.13;11.98;;;24.70;99.90;;;;;;4982644;28;20085;-86
2022/06/18 06:12:24;;;;;;;18.88;12.18;;;24.80;99.90;;;;;;4984751;28;20046;-88
2022/06/18 06:14:50;;;;;;;20.05;11.80;;;24.70;99.90;;;;;;4965970;28;20128;-87
2022/06/18 06:17:20;;;;;;;17.33;11.45;;;24.70;99.90;;;;;;4998026;28;20061;-87
2022/06/18 06:19:45;;;;;;;19.23;10.82;;;25.00;99.90;;;;;;4997812;28;20080;-88
2022/06/18 06:22:11;;;;;;;17.88;10.93;;;24.90;99.90;;;;;;4998270;28;20482;-87
2022/06/18 06:24:37;;;;;;;18.33;10.27;;;25.00;99.90;;;;;;4998309;28;20128;-87
2022/06/18 06:27:03;;;;;;;16.15;10.40;;;24.60;99.90;;;;;;4982562;28;20132;-87
2022/06/18 06:29:28;;;;;;;22.92;10.90;;;24.80;99.90;;;;;;4981861;28;20142;-87
2022/06/18 06:31:54;;;;;;;18.40;9.73;;;25.10;99.90;;;;;;4982569;28;20441;-88
2022/06/18 06:34:20;;;;;;;20.10;10.30;;;25.70;99.90;;;;;;4981573;28;20046;-87
2022/06/18 06:36:45;;;;;;;14.13;9.15;;;25.60;99.90;;;;;;4997835;28;20048;-87
2022/06/18 06:39:11;;;;;;;15.02;10.15;;;25.70;99.90;;;;;;4997816;28;20087;-87
2022/06/18 06:41:37;;;;;;;17.08;9.48;;;25.90;99.90;;;;;;4965542;28;20049;-87
2022/06/18 06:44:02;;;;;;;17.35;9.65;;;26.00;99.90;;;;;;4982197;28;20045;-87
2022/06/18 06:46:28;;;;;;;19.33;9.50;;;26.20;99.90;;;;;;4982408;28;20474;-87
2022/06/18 06:48:54;;;;;;;16.25;9.43;;;26.50;99.90;;;;;;5014516;28;20054;-87
2022/06/18 06:51:24;;;;;;;16.80;8.30;;;26.20;99.90;;;;;;5013822;28;20041;-86
2022/06/18 06:53:50;;;;;;;14.80;8.35;;;26.50;99.90;;;;;;5014157;28;20077;-86
2022/06/18 06:59:02;;;;;;;13.85;7.93;;;26.70;99.90;;;;;;5016555;28;20104;-87
2022/06/18 07:01:28;;;;;;;15.43;7.82;;;26.50;99.90;;;;;;4965451;28;20504;-87
2022/06/18 07:03:53;;;;;;;12.93;7.80;;;26.80;99.90;;;;;;5013519;28;20041;-88
2022/06/18 07:06:19;;;;;;;12.50;7.40;;;27.00;99.90;;;;;;5013518;28;20045;-87
2022/06/18 07:08:45;;;;;;;10.85;6.40;;;26.40;99.90;;;;;;5014317;28;20053;-86
2022/06/18 07:11:12;;;;;;;12.82;6.35;;;27.40;99.90;;;;;;5029913;28;20041;-87
2022/06/18 07:13:37;;;;;;;10.82;6.40;;;27.50;99.90;;;;;;4981014;28;20482;-87
2022/06/18 07:16:04;;;;;;;9.93;5.90;;;28.20;99.90;;;;;;4997084;28;20050;-87
2022/06/18 07:18:35;;;;;;;9.52;4.97;;;28.80;99.90;;;;;;4964711;28;20493;-87
2022/06/18 07:21:02;;;;;;;10.77;5.55;;;28.50;99.90;;;;;;5013767;28;20054;-87
2022/06/18 07:23:28;;;;;;;11.57;6.38;;;27.90;99.90;;;;;;4996979;28;20045;-87
2022/06/18 07:25:53;;;;;;;11.63;5.72;;;28.10;99.90;;;;;;5013757;28;20096;-87
2022/06/18 07:28:19;;;;;;;11.40;6.75;;;28.10;99.90;;;;;;4981221;28;20037;-87
2022/06/18 07:30:46;;;;;;;15.35;7.05;;;28.10;99.90;;;;;;4997522;28;20050;-88
2022/06/18 07:33:18;;;;;;;12.10;6.93;;;29.50;99.90;;;;;;5013558;28;20049;-88
2022/06/18 07:35:43;;;;;;;12.60;6.53;;;29.90;99.90;;;;;;4964760;28;20136;-87
2022/06/18 07:38:09;;;;;;;11.40;5.78;;;29.50;99.90;;;;;;4964708;28;20092;-87
2022/06/18 07:40:48;;;;;;;9.38;5.03;;;29.40;99.90;;;;;;4981507;28;20042;-87
2022/06/18 07:43:24;;;;;;;8.82;4.35;;;28.60;99.90;;;;;;5015024;28;20042;-87
2022/06/18 07:45:50;;;;;;;9.35;4.50;;;28.00;99.90;;;;;;5013988;28;20515;-87
2022/06/18 07:48:15;;;;;;;7.28;4.45;;;28.00;99.90;;;;;;4997322;28;20079;-87
2022/06/18 07:50:43;;;;;;;10.65;4.60;;;28.00;99.90;;;;;;5013335;28;20368;-87
2022/06/18 07:53:18;;;;;;;7.38;4.25;;;28.00;99.90;;;;;;4981348;28;20494;-86
2022/06/18 07:55:44;;;;;;;10.25;4.43;;;28.40;99.90;;;;;;4981701;28;20053;-87
2022/06/18 07:58:10;;;;;;;10.38;4.97;;;28.60;99.90;;;;;;4981166;28;20046;-87
2022/06/18 08:00:39;;;;;;;6.82;4.40;;;29.40;99.90;;;;;;4980521;28;20049;-87
2022/06/18 08:03:08;;;;;;;15.27;5.85;;;29.00;99.90;;;;;;5013953;28;20050;-89
2022/06/18 08:05:34;;;;;;;9.70;5.05;;;29.70;99.90;;;;;;4981886;28;20129;-87
2022/06/18 08:08:00;;;;;;;9.57;5.68;;;30.00;99.90;;;;;;5016924;28;20521;-87
2022/06/18 08:10:25;;;;;;;11.40;5.45;;;30.20;99.90;;;;;;4984104;28;20046;-87
2022/06/18 08:12:51;;;;;;;10.32;4.75;;;28.70;99.90;;;;;;5017120;28;20053;-87
2022/06/18 08:15:18;;;;;;;12.93;5.20;;;28.40;99.90;;;;;;4984581;28;20084;-88
2022/06/18 08:17:44;;;;;;;12.52;5.32;;;28.60;99.90;;;;;;4984148;28;20050;-88
2022/06/18 08:20:09;;;;;;;10.75;4.93;;;28.80;99.90;;;;;;5000804;28;20053;-88
2022/06/18 08:22:35;;;;;;;9.73;4.63;;;28.70;99.90;;;;;;4984377;28;20511;-86
2022/06/18 08:25:01;;;;;;;21.83;5.10;;;28.90;99.90;;;;;;5016851;28;20088;-88
2022/06/18 08:27:27;;;;;;;10.10;4.88;;;28.90;99.90;;;;;;4983997;28;20057;-88
2022/06/18 08:29:53;;;;;;;8.27;4.28;;;29.10;99.90;;;;;;5016295;28;20141;-89
2022/06/18 08:32:19;;;;;;;9.77;4.55;;;29.40;99.90;;;;;;4984208;28;20089;-87
2022/06/18 08:34:44;;;;;;;8.73;4.35;;;29.10;99.90;;;;;;4983925;28;20050;-88
2022/06/18 08:37:10;;;;;;;7.72;4.20;;;29.10;99.90;;;;;;5016415;28;20100;-88
2022/06/18 08:39:37;;;;;;;7.85;3.97;;;29.70;99.90;;;;;;4967745;28;20077;-88
2022/06/18 08:42:24;;;;;;;9.52;3.75;;;29.10;99.90;;;;;;5000087;28;20057;-87
2022/06/18 08:45:11;;;;;;;8.05;4.15;;;29.40;99.90;;;;;;5002336;28;20098;-87
2022/06/18 08:48:09;;;;;;;8.23;3.80;;;29.40;99.90;;;;;;4984568;28;20402;-87
2022/06/18 08:50:38;;;;;;;9.02;4.15;;;30.20;99.90;;;;;;5000840;28;20116;-87
2022/06/18 08:53:28;;;;;;;9.25;4.35;;;29.90;99.90;;;;;;4987716;28;20046;-88
2022/06/18 08:56:04;;;;;;;10.13;4.53;;;29.50;99.90;;;;;;4992402;28;20057;-86
2022/06/18 08:58:51;;;;;;;9.07;4.22;;;28.80;99.90;;;;;;4995360;28;20046;-87
2022/06/18 09:01:45;;;;;;;10.35;4.78;;;29.50;99.90;;;;;;5030203;28;20050;-87
2022/06/18 09:04:25;;;;;;;9.15;4.25;;;29.90;99.90;;;;;;5012376;28;20077;-87
2022/06/18 09:07:16;;;;;;;9.60;3.92;;;30.60;99.90;;;;;;4999097;28;20068;-87
2022/06/18 09:10:05;;;;;;;8.88;3.38;;;28.90;99.90;;;;;;5015580;28;20045;-89
2022/06/18 09:12:34;;;;;;;10.05;4.57;;;29.10;99.90;;;;;;5036134;28;20050;-86
2022/06/18 09:15:11;;;;;;;7.07;3.70;;;29.50;99.90;;;;;;5002937;28;20061;-86
2022/06/18 09:18:00;;;;;;;9.27;3.35;;;28.90;99.90;;;;;;5002612;28;20054;-87
2022/06/18 09:20:27;;;;;;;7.22;3.10;;;29.80;99.90;;;;;;5017409;28;20042;-87
2022/06/18 09:22:54;;;;;;;6.95;2.85;;;29.10;99.90;;;;;;5031368;28;20053;-87
2022/06/18 09:25:22;;;;;;;7.68;3.20;;;29.90;99.90;;;;;;5001914;28;20046;-87
2022/06/18 09:28:04;;;;;;;7.38;3.30;;;29.60;99.90;;;;;;5033647;28;20460;-88
2022/06/18 09:30:47;;;;;;;11.55;3.22;;;29.60;99.90;;;;;;5032637;28;20053;-88
2022/06/18 09:33:35;;;;;;;11.07;3.55;;;30.00;99.90;;;;;;5016578;28;20057;-88
2022/06/18 09:36:10;;;;;;;5.93;3.42;;;30.70;99.90;;;;;;5035395;28;20076;-89
2022/06/18 09:38:41;;;;;;;6.60;3.50;;;30.00;99.90;;;;;;5002082;28;20049;-88
2022/06/18 09:41:10;;;;;;;8.15;3.55;;;30.30;99.90;;;;;;5034461;28;20049;-87
2022/06/18 09:43:49;;;;;;;7.30;3.38;;;30.50;99.90;;;;;;4998706;28;20072;-88
2022/06/18 09:46:34;;;;;;;8.13;3.28;;;30.00;99.90;;;;;;5028229;28;20046;-87
2022/06/18 09:48:59;;;;;;;13.55;3.75;;;30.40;99.90;;;;;;4977060;28;20056;-88
2022/06/18 09:51:28;;;;;;;7.85;3.10;;;30.80;99.90;;;;;;4995589;28;20089;-87
2022/06/18 09:53:54;;;;;;;10.60;4.03;;;30.20;99.90;;;;;;4990624;28;20049;-88
2022/06/18 09:56:27;;;;;;;7.25;3.40;;;30.30;99.90;;;;;;5019838;28;20502;-89
2022/06/18 09:59:00;;;;;;;5.95;3.20;;;29.60;99.90;;;;;;5016522;28;20057;-88
2022/06/18 10:01:44;;;;;;;9.23;3.47;;;29.50;99.90;;;;;;5015848;28;20064;-88
2022/06/18 10:07:05;;;;;;;6.15;2.40;;;29.60;99.90;;;;;;5018012;28;20123;-88
2022/06/18 10:09:42;;;;;;;8.73;2.60;;;29.00;99.90;;;;;;4982003;28;20050;-88
2022/06/18 10:12:31;;;;;;;5.78;2.67;;;29.80;99.90;;;;;;4982870;28;20132;-88
2022/06/18 10:14:59;;;;;;;5.28;2.30;;;29.00;99.90;;;;;;4984214;28;20053;-88
2022/06/18 10:17:43;;;;;;;6.25;2.50;;;28.70;99.90;;;;;;4982335;28;20108;-87
2022/06/18 10:20:11;;;;;;;6.03;2.55;;;28.60;99.90;;;;;;4998938;28;20046;-88
2022/06/18 10:22:50;;;;;;;5.85;2.60;;;28.00;99.90;;;;;;4981862;28;20057;-88
2022/06/18 10:25:42;;;;;;;4.95;2.33;;;27.50;99.90;;;;;;5015159;28;20180;-87
2022/06/18 10:28:29;;;;;;;3.65;2.45;;;28.10;99.90;;;;;;4984424;28;20046;-87
2022/06/18 10:31:11;;;;;;;3.63;2.08;;;28.30;99.90;;;;;;5014394;28;20133;-87
2022/06/18 10:33:49;;;;;;;5.38;2.35;;;28.70;99.90;;;;;;5015617;28;20050;-87
2022/06/18 10:36:42;;;;;;;3.75;2.28;;;28.60;99.90;;;;;;5015470;28;20050;-87
2022/06/18 10:39:31;;;;;;;;;;;28.20;99.90;;;;;;5000818;28;20053;-87
2022/06/18 10:42:03;;;;;;;4.93;2.28;;;27.90;99.90;;;;;;5014649;28;20024;-88
2022/06/18 10:44:53;;;;;;;6.25;2.88;;;27.90;99.90;;;;;;5014118;28;20120;-87
2022/06/18 10:47:19;;;;;;;4.25;2.13;;;28.20;99.90;;;;;;5014677;28;20050;-88
2022/06/18 10:49:46;;;;;;;4.35;2.63;;;29.00;99.90;;;;;;4982096;28;20041;-87
2022/06/18 10:52:23;;;;;;;5.78;2.63;;;29.70;99.90;;;;;;4982277;28;20049;-87
2022/06/18 10:54:49;;;;;;;5.65;2.30;;;29.00;99.90;;;;;;4981903;28;20045;-88
2022/06/18 10:57:23;;;;;;;3.42;2.03;;;29.40;99.90;;;;;;5014486;28;20068;-88
2022/06/18 10:59:49;;;;;;;4.72;2.42;;;29.60;99.90;;;;;;5014109;28;20046;-87
2022/06/18 11:02:20;;;;;;;4.95;2.10;;;29.10;99.90;;;;;;4997213;28;20049;-87
2022/06/18 11:05:00;;;;;;;2.45;1.90;;;28.60;99.90;;;;;;5014110;28;20135;-88
2022/06/18 11:07:27;;;;;;;2.67;1.85;;;29.10;99.90;;;;;;4998269;28;20121;-87
2022/06/18 11:10:02;;;;;;;3.22;1.88;;;28.30;99.90;;;;;;4997277;28;20054;-87
2022/06/18 11:12:31;;;;;;;11.38;2.90;;;28.70;99.90;;;;;;4982401;28;20060;-87
2022/06/18 11:14:57;;;;;;;3.83;1.73;;;28.50;99.90;;;;;;5014341;28;20061;-88
2022/06/18 11:17:33;;;;;;;3.92;1.52;;;28.40;99.90;;;;;;5014059;28;20045;-88
2022/06/18 11:20:28;;;;;;;6.50;1.73;;;28.90;99.90;;;;;;4981307;28;20054;-87
2022/06/18 11:23:02;;;;;;;4.20;1.83;;;28.50;99.90;;;;;;4997039;28;20382;-86
2022/06/18 11:25:51;;;;;;;4.70;1.55;;;28.10;99.90;;;;;;4981864;28;20057;-86
2022/06/18 11:28:29;;;;;;;3.78;1.50;;;27.90;99.90;;;;;;5014133;28;20050;-86
2022/06/18 11:30:54;;;;;;;5.45;1.60;;;27.70;99.90;;;;;;4964491;28;20081;-87
2022/06/18 11:33:33;;;;;;;3.05;1.70;;;27.80;99.90;;;;;;4981039;28;20482;-88
2022/06/18 11:36:11;;;;;;;3.67;2.08;;;28.00;99.90;;;;;;5013382;28;20401;-88
2022/06/18 11:38:37;;;;;;;5.38;1.55;;;28.50;99.90;;;;;;4997775;28;20478;-86
2022/06/18 11:41:15;;;;;;;3.45;1.52;;;28.00;99.90;;;;;;4997348;28;20057;-86
2022/06/18 11:43:56;;;;;;;4.47;1.83;;;28.10;99.90;;;;;;4966364;28;20058;-86
2022/06/18 11:46:37;;;;;;;3.10;2.00;;;28.20;99.90;;;;;;5013693;28;20066;-87
2022/06/18 11:49:21;;;;;;;3.65;1.77;;;28.50;99.90;;;;;;5014632;28;20045;-86
2022/06/18 11:52:08;;;;;;;4.07;1.88;;;28.50;99.90;;;;;;4981499;28;20057;-87
2022/06/18 11:54:45;;;;;;;5.60;1.88;;;28.30;99.90;;;;;;4997265;28;20088;-87
2022/06/18 11:57:21;;;;;;;3.72;1.80;;;28.40;99.90;;;;;;4965412;28;20064;-88
2022/06/18 11:59:53;;;;;;;3.90;1.77;;;27.70;99.90;;;;;;5013972;28;20053;-88
2022/06/18 12:02:52;;;;;;;4.68;2.00;;;27.70;99.90;;;;;;4965731;28;20089;-88
2022/06/18 12:05:34;;;;;;;3.80;1.60;;;27.50;99.90;;;;;;4963705;28;20402;-87
2022/06/18 12:08:00;;;;;;;6.30;2.25;;;27.60;99.90;;;;;;5013108;28;20049;-88
2022/06/18 12:10:48;;;;;;;2.65;1.55;;;27.50;99.90;;;;;;4981619;28;20054;-86
2022/06/18 12:13:40;;;;;;;2.97;1.70;;;27.20;99.90;;;;;;5014051;28;20052;-87
2022/06/18 12:16:23;;;;;;;4.38;1.45;;;27.40;99.90;;;;;;5012783;28;20095;-87
2022/06/18 12:18:57;;;;;;;5.03;1.63;;;27.50;99.90;;;;;;4996864;28;20497;-85
2022/06/18 12:21:48;;;;;;;4.22;1.70;;;27.50;99.90;;;;;;5013125;28;20053;-87
2022/06/18 12:24:16;;;;;;;3.63;1.75;;;28.00;99.90;;;;;;4997231;28;20493;-87
2022/06/18 12:26:50;;;;;;;2.75;1.38;;;27.60;99.90;;;;;;4996706;28;20056;-86
2022/06/18 12:29:33;;;;;;;3.97;1.73;;;27.50;99.90;;;;;;4980823;28;20061;-86
2022/06/18 12:32:20;;;;;;;3.05;1.67;;;27.80;99.90;;;;;;4966127;28;20398;-87
2022/06/18 12:34:51;;;;;;;3.30;1.27;;;27.10;99.90;;;;;;5012989;28;20061;-87
2022/06/18 12:37:20;;;;;;;2.47;1.60;;;27.10;99.90;;;;;;4980120;28;20129;-87
2022/06/18 12:39:52;;;;;;;2.70;1.30;;;27.30;99.90;;;;;;5012630;28;20037;-87
2022/06/18 12:42:27;;;;;;;2.08;1.42;;;28.00;99.90;;;;;;5013041;28;20096;-88
2022/06/18 12:45:08;;;;;;;2.70;1.50;;;27.70;99.90;;;;;;4980985;28;20054;-88
2022/06/18 12:47:39;;;;;;;3.83;1.50;;;27.80;99.90;;;;;;5013439;28;20087;-87
2022/06/18 12:50:30;;;;;;;3.78;1.65;;;27.60;99.90;;;;;;4996162;28;20458;-88
2022/06/18 12:53:11;;;;;;;1.92;1.02;;;27.70;99.90;;;;;;4999569;28;20042;-87
2022/06/18 12:56:01;;;;;;;7.97;1.30;;;27.60;99.90;;;;;;4968981;28;20054;-88
2022/06/18 12:58:47;;;;;;;2.75;1.15;;;28.00;99.90;;;;;;4983813;28;20048;-87
2022/06/18 13:01:30;;;;;;;2.15;1.40;;;27.70;99.90;;;;;;5016572;28;20053;-86
2022/06/18 13:04:08;;;;;;;3.42;1.30;;;27.70;99.90;;;;;;5017982;28;20125;-88
2022/06/18 13:06:43;;;;;;;3.08;1.58;;;27.20;99.90;;;;;;5016045;28;20132;-87
2022/06/18 13:09:18;;;;;;;5.32;1.80;;;26.80;99.90;;;;;;4983614;28;20050;-88
2022/06/18 13:12:00;;;;;;;3.42;1.50;;;26.80;99.90;;;;;;4984697;28;20147;-87
2022/06/18 13:14:47;;;;;;;4.65;1.50;;;26.70;99.90;;;;;;5000380;28;20448;-88